createdAt,value
2023-05-19T00:03:53.737Z,7.90
2023-05-19T00:07:57.815Z,6.40
2023-05-19T00:11:59.285Z,6.40
2023-05-19T00:16:00.898Z,10.93
2023-05-19T00:20:03.966Z,8.77
2023-05-19T00:24:06.999Z,8.63
2023-05-19T00:28:08.178Z,6.50
2023-05-19T00:32:09.716Z,6.37
2023-05-19T00:36:11.391Z,7.63
2023-05-19T00:40:12.912Z,6.07
2023-05-19T00:44:14.113Z,10.00
2023-05-19T00:48:15.206Z,10.77
2023-05-19T00:52:16.484Z,11.73
2023-05-19T00:56:18.496Z,13.67
2023-05-19T01:00:20.580Z,26.87
2023-05-19T01:04:21.826Z,40.67
2023-05-19T01:08:23.133Z,43.13
2023-05-19T01:12:25.786Z,33.50
2023-05-19T01:16:38.563Z,30.10
2023-05-19T01:20:46.049Z,28.83
2023-05-19T01:25:09.559Z,35.93
2023-05-19T01:29:31.650Z,22.27
2023-05-19T01:33:34.188Z,16.77
2023-05-19T01:37:38.101Z,12.43
2023-05-19T01:41:41.195Z,10.13
2023-05-19T01:45:43.947Z,8.93
2023-05-19T01:49:45.243Z,8.00
2023-05-19T01:53:46.577Z,6.60
2023-05-19T01:57:57.764Z,5.80
2023-05-19T02:02:02.803Z,6.60
2023-05-19T02:06:27.184Z,7.07
2023-05-19T02:10:32.293Z,11.33
2023-05-19T02:14:37.457Z,7.87
2023-05-19T02:18:39.401Z,6.23
2023-05-19T02:22:40.889Z,8.40
2023-05-19T02:26:42.100Z,9.13
2023-05-19T02:30:43.280Z,7.97
2023-05-19T02:34:44.900Z,5.70
2023-05-19T02:38:46.104Z,6.27
2023-05-19T02:42:47.339Z,6.27
2023-05-19T02:46:48.599Z,6.60
2023-05-19T02:50:49.844Z,11.27
2023-05-19T02:54:51.057Z,10.90
2023-05-19T02:58:52.456Z,7.10
2023-05-19T03:02:53.870Z,6.83
2023-05-19T03:06:55.612Z,8.57
2023-05-19T03:10:56.794Z,5.20
2023-05-19T03:14:58.111Z,7.60
2023-05-19T03:18:59.474Z,8.97
2023-05-19T03:23:00.855Z,8.37
2023-05-19T03:27:04.566Z,6.97
2023-05-19T03:31:05.869Z,7.83
2023-05-19T03:35:07.686Z,6.80
2023-05-19T03:39:08.904Z,5.50
2023-05-19T03:43:10.119Z,9.57
2023-05-19T03:47:11.335Z,6.63
2023-05-19T03:51:12.859Z,7.13
2023-05-19T03:55:14.206Z,7.47
2023-05-19T03:59:15.523Z,7.23
2023-05-19T04:03:16.811Z,6.03
2023-05-19T04:07:18.182Z,5.40
2023-05-19T04:11:20.804Z,5.30
2023-05-19T04:15:21.993Z,6.70
2023-05-19T04:19:23.381Z,7.30
2023-05-19T04:23:24.754Z,10.03
2023-05-19T04:27:27.369Z,6.43
2023-05-19T04:31:29.415Z,11.90
2023-05-19T04:35:30.687Z,7.00
2023-05-19T04:39:31.901Z,4.83
2023-05-19T04:43:33.635Z,8.73
2023-05-19T04:47:37.627Z,6.27
2023-05-19T04:51:40.701Z,7.10
2023-05-19T04:55:41.921Z,5.97
2023-05-19T04:59:43.919Z,5.60
2023-05-19T05:03:45.266Z,7.20
2023-05-19T05:07:47.139Z,10.17
2023-05-19T05:11:48.849Z,6.00
2023-05-19T05:15:52.358Z,7.70
2023-05-19T05:19:54.074Z,8.63
2023-05-19T05:23:55.768Z,6.23
2023-05-19T05:27:58.277Z,7.47
2023-05-19T05:31:59.763Z,6.73
2023-05-19T05:36:01.196Z,9.20
2023-05-19T05:40:03.894Z,4.60
2023-05-19T05:44:05.317Z,7.13
2023-05-19T05:48:07.203Z,9.03
2023-05-19T05:52:11.454Z,8.67
2023-05-19T05:56:13.620Z,4.20
2023-05-19T06:00:15.558Z,5.80
2023-05-19T06:04:16.872Z,6.27
2023-05-19T06:08:18.194Z,5.43
2023-05-19T06:12:19.396Z,8.50
2023-05-19T06:16:20.696Z,6.03
2023-05-19T06:20:21.923Z,5.37
2023-05-19T06:24:23.119Z,5.10
2023-05-19T06:28:24.333Z,6.20
2023-05-19T06:32:25.529Z,5.70
2023-05-19T06:36:26.810Z,5.90
2023-05-19T06:40:28.034Z,10.10
2023-05-19T06:44:29.219Z,8.70
2023-05-19T06:48:30.752Z,12.90
2023-05-19T06:52:31.942Z,5.57
2023-05-19T06:56:33.230Z,6.20
2023-05-19T07:00:34.601Z,7.37
2023-05-19T07:04:36.026Z,8.33
2023-05-19T07:08:37.516Z,5.77
2023-05-19T07:12:38.882Z,7.10
2023-05-19T07:16:40.118Z,7.70
2023-05-19T07:20:41.354Z,10.13
2023-05-19T07:24:42.552Z,9.07
2023-05-19T07:28:43.768Z,4.13
2023-05-19T07:32:45.025Z,6.50
2023-05-19T07:36:46.325Z,7.97
2023-05-19T07:40:47.669Z,6.37
2023-05-19T07:44:48.878Z,5.50
2023-05-19T07:48:50.151Z,6.50
2023-05-19T07:52:51.518Z,7.40
2023-05-19T07:56:52.734Z,5.47
2023-05-19T08:00:58.522Z,6.30
2023-05-19T08:04:59.935Z,7.63
2023-05-19T08:09:01.225Z,8.40
2023-05-19T08:13:02.442Z,6.60
2023-05-19T08:17:04.303Z,6.33
2023-05-19T08:21:05.988Z,5.67
2023-05-19T08:25:07.591Z,7.83
2023-05-19T08:29:08.802Z,5.63
2023-05-19T08:33:10.142Z,7.00
2023-05-19T08:37:12.509Z,5.33
2023-05-19T08:41:13.696Z,6.80
2023-05-19T08:45:15.484Z,8.00
2023-05-19T08:49:18.870Z,6.70
2023-05-19T08:57:33.904Z,7.50
2023-05-19T09:05:38.592Z,5.50
2023-05-19T09:09:42.789Z,7.30
2023-05-19T09:13:44.002Z,4.40
2023-05-19T09:17:47.489Z,6.50
2023-05-19T09:21:52.598Z,6.47
2023-05-19T09:25:54.471Z,4.50
2023-05-19T09:29:57.581Z,7.80
2023-05-19T09:34:00.743Z,7.13
2023-05-19T09:38:01.982Z,9.00
2023-05-19T09:42:04.727Z,5.63
2023-05-19T09:46:08.111Z,5.40
2023-05-19T09:50:11.438Z,5.40
2023-05-19T09:54:15.833Z,4.53
2023-05-19T09:58:20.951Z,7.40
2023-05-19T10:02:25.736Z,6.50
2023-05-19T10:06:27.086Z,6.50
2023-05-19T10:10:29.317Z,4.47
2023-05-19T10:14:30.568Z,6.93
2023-05-19T10:18:32.984Z,6.30
2023-05-19T10:22:34.209Z,7.57
2023-05-19T10:26:35.992Z,5.50
2023-05-19T10:30:43.190Z,6.67
2023-05-19T10:35:00.153Z,7.73
2023-05-19T10:39:05.235Z,6.77
2023-05-19T10:43:31.518Z,4.13
2023-05-19T10:47:34.443Z,4.60
2023-05-19T10:51:36.538Z,5.77
2023-05-19T10:55:47.767Z,5.83
2023-05-19T10:59:49.276Z,4.57
2023-05-19T11:03:53.051Z,7.30
2023-05-19T11:07:56.925Z,6.80
2023-05-19T11:12:02.627Z,7.53
2023-05-19T11:16:08.232Z,5.00
2023-05-19T11:20:24.992Z,6.70
2023-05-19T11:24:44.467Z,4.73
2023-05-19T11:28:47.493Z,4.97
2023-05-19T11:32:48.836Z,6.73
2023-05-19T11:36:50.505Z,5.00
2023-05-19T11:40:55.634Z,4.40
2023-05-19T11:44:56.928Z,4.83
2023-05-19T11:48:58.337Z,8.53
2023-05-19T11:53:00.675Z,6.00
2023-05-19T11:57:03.503Z,5.70
2023-05-19T12:01:05.566Z,6.00
2023-05-19T12:05:08.141Z,5.00
2023-05-19T12:09:10.363Z,10.17
2023-05-19T12:13:11.956Z,5.93
2023-05-19T12:17:15.840Z,4.90
2023-05-19T12:21:17.057Z,6.63
2023-05-19T12:25:19.507Z,5.53
2023-05-19T12:29:20.724Z,4.23
2023-05-19T12:33:23.643Z,8.50
2023-05-19T12:37:32.442Z,4.73
2023-05-19T12:41:33.850Z,4.30
2023-05-19T12:45:36.476Z,4.80
2023-05-19T12:49:56.294Z,4.73
2023-05-19T12:53:57.633Z,6.00
2023-05-19T12:57:58.875Z,5.83
2023-05-19T13:02:01.645Z,4.53
2023-05-19T13:06:03.159Z,7.83
2023-05-19T13:10:06.064Z,5.00
2023-05-19T13:14:07.306Z,5.90
2023-05-19T13:18:10.805Z,4.50
2023-05-19T13:22:12.045Z,5.60
2023-05-19T13:26:13.662Z,4.37
2023-05-19T13:30:15.640Z,8.37
2023-05-19T13:34:18.770Z,5.33
2023-05-19T13:38:20.018Z,6.37
2023-05-19T13:42:21.220Z,4.70
2023-05-19T13:46:32.768Z,7.20
2023-05-19T13:50:25.849Z,11.03
2023-05-19T13:54:27.120Z,4.37
2023-05-19T13:58:30.002Z,6.53
2023-05-19T14:02:33.070Z,4.20
2023-05-19T14:06:34.438Z,4.80
2023-05-19T14:10:36.002Z,8.07
2023-05-19T14:14:37.829Z,5.00
2023-05-19T14:18:39.116Z,6.37
2023-05-19T14:22:40.419Z,4.93
2023-05-19T14:26:41.686Z,5.63
2023-05-19T14:30:42.936Z,3.63
2023-05-19T14:34:44.283Z,5.17
2023-05-19T14:38:45.497Z,4.60
2023-05-19T14:42:46.687Z,12.93
2023-05-19T14:46:47.933Z,4.73
2023-05-19T14:50:49.158Z,5.17
2023-05-19T14:54:50.378Z,3.90
2023-05-19T14:58:51.628Z,8.07
2023-05-19T15:02:54.010Z,5.10
2023-05-19T15:07:09.648Z,4.33
2023-05-19T15:11:00.121Z,7.50
2023-05-19T15:15:01.332Z,7.67
2023-05-19T15:19:02.581Z,4.67
2023-05-19T15:23:03.750Z,4.57
2023-05-19T15:27:05.145Z,4.20
2023-05-19T15:31:06.781Z,5.13
2023-05-19T15:35:08.228Z,9.33
2023-05-19T15:39:09.471Z,3.80
2023-05-19T15:43:10.682Z,5.97
2023-05-19T15:47:11.949Z,5.83
2023-05-19T15:51:15.261Z,7.67
2023-05-19T15:55:16.645Z,5.03
2023-05-19T15:59:17.841Z,5.73
2023-05-19T16:03:19.215Z,4.03
2023-05-19T16:07:22.361Z,5.77
2023-05-19T16:11:23.598Z,5.97
2023-05-19T16:15:24.809Z,4.37
2023-05-19T16:19:26.992Z,5.00
2023-05-19T16:23:28.357Z,5.93
2023-05-19T16:27:29.681Z,6.90
2023-05-19T16:31:31.036Z,11.13
2023-05-19T16:35:32.335Z,10.37
2023-05-19T16:39:36.625Z,5.60
2023-05-19T16:43:37.905Z,6.40
2023-05-19T16:47:39.095Z,5.33
2023-05-19T16:51:40.280Z,6.10
2023-05-19T16:55:41.498Z,6.00
2023-05-19T16:59:42.721Z,5.10
2023-05-19T17:03:43.981Z,6.93
2023-05-19T17:07:45.130Z,10.47
2023-05-19T17:11:46.341Z,12.80
2023-05-19T17:15:49.456Z,4.13
2023-05-19T17:19:50.850Z,7.20
2023-05-19T17:23:52.065Z,8.23
2023-05-19T17:27:54.537Z,5.53
2023-05-19T17:31:55.761Z,5.10
2023-05-19T17:35:57.065Z,3.97
2023-05-19T17:39:58.364Z,6.00
2023-05-19T17:43:59.991Z,5.50
2023-05-19T17:48:01.231Z,6.93
2023-05-19T17:52:03.010Z,4.47
2023-05-19T17:56:07.748Z,4.80
2023-05-19T18:00:12.013Z,5.47
2023-05-19T18:04:15.896Z,6.87
2023-05-19T18:16:32.599Z,6.80
2023-05-19T18:20:34.554Z,4.80
2023-05-19T18:24:36.202Z,5.37
2023-05-19T18:28:37.559Z,5.20
2023-05-19T18:32:38.832Z,4.20
2023-05-19T18:36:40.703Z,7.67
2023-05-19T18:40:45.076Z,6.53
2023-05-19T18:44:46.739Z,4.60
2023-05-19T18:48:49.876Z,4.60
2023-05-19T18:52:51.046Z,5.93
2023-05-19T18:56:53.759Z,4.30
2023-05-19T19:00:55.353Z,5.23
2023-05-19T19:04:56.761Z,5.20
2023-05-19T19:08:57.916Z,5.53
2023-05-19T19:12:59.527Z,4.80
2023-05-19T19:17:00.769Z,6.47
2023-05-19T19:21:04.766Z,5.53
2023-05-19T19:25:06.544Z,4.80
2023-05-19T19:29:07.955Z,5.03
2023-05-19T19:33:09.231Z,4.20
2023-05-19T19:37:10.710Z,4.70
2023-05-19T19:41:11.953Z,5.60
2023-05-19T19:45:15.564Z,5.03
2023-05-19T19:49:16.514Z,6.40
2023-05-19T19:53:18.100Z,5.30
2023-05-19T19:57:19.273Z,4.00
2023-05-19T20:01:22.445Z,3.90
2023-05-19T20:05:23.682Z,4.90
2023-05-19T20:09:25.069Z,5.83
2023-05-19T20:13:26.325Z,5.40
2023-05-19T20:17:27.645Z,4.60
2023-05-19T20:21:28.882Z,4.33
2023-05-19T20:25:30.193Z,4.00
2023-05-19T20:29:31.499Z,8.83
2023-05-19T20:33:32.777Z,7.10
2023-05-19T20:37:33.956Z,4.97
2023-05-19T20:41:35.553Z,4.77
2023-05-19T20:45:37.039Z,7.13
2023-05-19T20:49:38.541Z,5.40
2023-05-19T20:53:39.848Z,5.33
2023-05-19T20:57:42.978Z,4.87
2023-05-19T21:01:45.254Z,7.10
2023-05-19T21:05:46.603Z,4.07
2023-05-19T21:09:49.750Z,5.30
2023-05-19T21:13:50.979Z,7.33
2023-05-19T21:17:52.235Z,4.90
2023-05-19T21:21:53.368Z,6.60
2023-05-19T21:25:54.614Z,6.70
2023-05-19T21:29:55.868Z,6.53
2023-05-19T21:33:57.474Z,5.50
2023-05-19T21:38:03.894Z,4.47
2023-05-19T21:42:02.393Z,4.43
2023-05-19T21:46:03.683Z,9.03
2023-05-19T21:50:06.251Z,5.07
2023-05-19T21:54:07.489Z,7.27
2023-05-19T21:58:08.899Z,4.70
2023-05-19T22:02:10.186Z,5.77
2023-05-19T22:06:11.918Z,5.93
2023-05-19T22:10:13.398Z,5.40
2023-05-19T22:14:14.725Z,6.77
2023-05-19T22:18:16.415Z,4.33
2023-05-19T22:22:17.622Z,7.13
2023-05-19T22:26:18.825Z,5.57
2023-05-19T22:30:20.154Z,6.40
2023-05-19T22:34:21.395Z,7.03
2023-05-19T22:38:22.544Z,5.50
2023-05-19T22:42:23.747Z,5.13
2023-05-19T22:46:25.263Z,6.40
2023-05-19T22:50:26.480Z,7.93
2023-05-19T22:54:27.700Z,7.90
2023-05-19T22:58:28.899Z,5.50
2023-05-19T23:02:30.188Z,8.57
2023-05-19T23:06:31.611Z,9.73
2023-05-19T23:10:32.807Z,5.27
2023-05-19T23:14:34.023Z,6.37
2023-05-19T23:18:35.423Z,9.13
2023-05-19T23:22:36.638Z,5.27
2023-05-19T23:26:37.926Z,7.20
2023-05-19T23:30:39.127Z,8.10
2023-05-19T23:34:40.319Z,5.70
2023-05-19T23:38:41.634Z,6.33
2023-05-19T23:42:43.964Z,6.40
2023-05-19T23:46:45.226Z,5.47
2023-05-19T23:50:46.377Z,7.00
2023-05-19T23:54:48.236Z,11.73
2023-05-19T23:58:49.445Z,5.93
